createdAt,value
2018-05-26T00:00:38.448Z,0.00
2018-05-26T00:01:44.805Z,0.00
2018-05-26T00:02:51.179Z,0.00
2018-05-26T00:03:57.514Z,0.00
2018-05-26T00:05:04.358Z,0.00
2018-05-26T00:06:10.230Z,0.00
2018-05-26T00:07:16.593Z,0.00
2018-05-26T00:08:22.911Z,0.00
2018-05-26T00:09:29.265Z,0.00
2018-05-26T00:10:35.629Z,0.00
2018-05-26T00:11:41.975Z,0.00
2018-05-26T00:12:48.345Z,0.00
2018-05-26T00:13:54.670Z,0.00
2018-05-26T00:15:01.014Z,0.00
2018-05-26T00:16:07.368Z,0.00
2018-05-26T00:17:13.739Z,0.00
2018-05-26T00:18:20.079Z,0.00
2018-05-26T00:19:26.418Z,0.00
2018-05-26T00:20:32.779Z,0.00
2018-05-26T00:21:39.114Z,0.00
2018-05-26T00:22:45.976Z,0.00
2018-05-26T00:23:51.810Z,0.00
2018-05-26T00:24:58.164Z,0.00
2018-05-26T00:26:04.524Z,0.00
2018-05-26T00:27:11.377Z,0.00
2018-05-26T00:28:17.208Z,0.00
2018-05-26T00:29:23.542Z,0.00
2018-05-26T00:30:30.376Z,0.00
2018-05-26T00:31:36.244Z,0.00
2018-05-26T00:32:42.597Z,0.00
2018-05-26T00:33:48.920Z,0.00
2018-05-26T00:34:55.258Z,0.00
2018-05-26T00:36:01.610Z,0.00
2018-05-26T00:37:08.956Z,0.00
2018-05-26T00:38:14.285Z,0.00
2018-05-26T00:39:20.619Z,0.00
2018-05-26T00:40:26.965Z,0.00
2018-05-26T00:41:33.309Z,0.00
2018-05-26T00:42:39.661Z,0.00
2018-05-26T00:43:46.977Z,0.00
2018-05-26T00:44:52.314Z,0.00
2018-05-26T00:45:59.140Z,0.00
2018-05-26T00:47:05.011Z,0.00
2018-05-26T00:48:11.344Z,0.00
2018-05-26T00:49:18.161Z,0.00
2018-05-26T00:50:24.006Z,0.00
2018-05-26T00:51:30.345Z,0.00
2018-05-26T00:52:36.691Z,0.00
2018-05-26T00:53:43.030Z,0.00
2018-05-26T00:54:49.344Z,0.00
2018-05-26T00:55:55.677Z,0.00
2018-05-26T00:57:02.000Z,0.00
2018-05-26T00:58:08.357Z,0.00
2018-05-26T00:59:14.673Z,0.00
2018-05-26T01:00:22.045Z,0.00
2018-05-26T01:01:27.350Z,0.00
2018-05-26T01:02:33.702Z,0.00
2018-05-26T01:03:40.001Z,0.00
2018-05-26T01:04:46.361Z,0.00
2018-05-26T01:05:53.198Z,0.00
2018-05-26T01:06:58.998Z,0.00
2018-05-26T01:08:05.404Z,0.00
2018-05-26T01:09:11.700Z,0.00
2018-05-26T01:10:18.033Z,0.00
2018-05-26T01:11:24.319Z,0.00
2018-05-26T01:12:30.681Z,0.00
2018-05-26T01:13:36.988Z,0.00
2018-05-26T01:14:43.344Z,0.00
2018-05-26T01:15:49.636Z,0.00
2018-05-26T01:16:55.983Z,0.00
2018-05-26T01:18:02.347Z,0.00
2018-05-26T01:19:08.656Z,0.00
2018-05-26T01:20:14.953Z,0.00
2018-05-26T01:21:21.307Z,0.00
2018-05-26T01:22:27.652Z,0.00
2018-05-26T01:23:33.927Z,0.00
2018-05-26T01:24:40.245Z,0.00
2018-05-26T01:25:46.616Z,0.00
2018-05-26T01:26:52.898Z,0.00
2018-05-26T01:27:59.284Z,0.00
2018-05-26T01:29:06.048Z,0.00
2018-05-26T01:30:11.916Z,0.00
2018-05-26T01:31:18.231Z,0.00
2018-05-26T01:32:24.589Z,0.00
2018-05-26T01:33:30.843Z,0.00
2018-05-26T01:34:37.711Z,0.00
2018-05-26T01:35:43.553Z,0.00
2018-05-26T01:36:49.840Z,0.00
2018-05-26T01:37:56.206Z,0.00
2018-05-26T01:39:02.526Z,0.00
2018-05-26T01:40:10.307Z,0.00
2018-05-26T01:41:15.174Z,0.00
2018-05-26T01:42:21.581Z,0.00
2018-05-26T01:43:27.838Z,0.00
2018-05-26T01:44:34.127Z,0.00
2018-05-26T01:45:40.897Z,0.00
2018-05-26T01:46:46.751Z,0.00
2018-05-26T01:47:53.595Z,0.00
2018-05-26T01:48:59.431Z,0.00
2018-05-26T01:50:05.777Z,0.00
2018-05-26T01:51:12.046Z,0.00
2018-05-26T01:52:18.390Z,0.00
2018-05-26T01:53:24.777Z,0.00
2018-05-26T01:54:31.037Z,0.00
2018-05-26T01:55:37.351Z,0.00
2018-05-26T01:56:43.676Z,0.00
2018-05-26T01:57:51.010Z,0.00
2018-05-26T01:58:56.346Z,0.00
2018-05-26T02:00:02.641Z,0.00
2018-05-26T02:01:08.944Z,0.00
2018-05-26T02:02:15.767Z,0.00
2018-05-26T02:03:21.668Z,0.00
2018-05-26T02:04:28.410Z,0.00
2018-05-26T02:05:34.250Z,0.00
2018-05-26T02:06:40.603Z,0.00
2018-05-26T02:07:46.953Z,0.00
2018-05-26T02:08:53.196Z,0.00
2018-05-26T02:09:59.525Z,0.00
2018-05-26T02:11:05.853Z,0.00
2018-05-26T02:12:12.181Z,0.00
2018-05-26T02:13:18.564Z,0.00
2018-05-26T02:14:25.306Z,0.00
2018-05-26T02:15:31.150Z,0.00
2018-05-26T02:16:37.537Z,0.00
2018-05-26T02:17:43.848Z,0.00
2018-05-26T02:18:50.141Z,0.00
2018-05-26T02:19:56.462Z,0.00
2018-05-26T02:21:02.786Z,0.00
2018-05-26T02:22:09.102Z,0.00
2018-05-26T02:23:15.460Z,0.00
2018-05-26T02:24:21.817Z,0.00
2018-05-26T02:25:28.080Z,0.00
2018-05-26T02:26:34.393Z,0.00
2018-05-26T02:27:40.780Z,0.00
2018-05-26T02:28:47.055Z,0.00
2018-05-26T02:29:53.390Z,0.00
2018-05-26T02:31:00.205Z,0.00
2018-05-26T02:32:06.048Z,0.00
2018-05-26T02:33:12.904Z,0.00
2018-05-26T02:34:18.723Z,0.00
2018-05-26T02:35:25.036Z,0.00
2018-05-26T02:36:31.406Z,0.00
2018-05-26T02:37:37.713Z,0.00
2018-05-26T02:38:44.043Z,0.00
2018-05-26T02:39:50.398Z,0.00
2018-05-26T02:40:56.713Z,0.00
2018-05-26T02:42:03.016Z,0.00
2018-05-26T02:43:09.866Z,0.00
2018-05-26T02:44:15.722Z,0.00
2018-05-26T02:45:22.027Z,0.00
2018-05-26T02:46:28.884Z,4.00
2018-05-26T02:47:35.225Z,4.00
2018-05-26T02:48:42.026Z,0.00
2018-05-26T02:49:47.396Z,4.00
2018-05-26T02:50:53.714Z,4.00
2018-05-26T02:52:00.066Z,8.00
2018-05-26T02:53:06.429Z,4.00
2018-05-26T02:54:13.745Z,8.00
2018-05-26T02:55:19.043Z,8.00
2018-05-26T02:56:25.373Z,8.00
2018-05-26T02:57:31.758Z,12.00
2018-05-26T02:58:38.067Z,12.00
2018-05-26T02:59:44.373Z,16.00
2018-05-26T03:00:50.777Z,16.00
2018-05-26T03:01:57.518Z,24.00
2018-05-26T03:03:03.369Z,24.00
2018-05-26T03:04:09.680Z,32.00
2018-05-26T03:05:16.974Z,32.00
2018-05-26T03:06:22.337Z,36.00
2018-05-26T03:07:29.163Z,44.00
2018-05-26T03:08:35.016Z,52.00
2018-05-26T03:09:41.317Z,56.00
2018-05-26T03:10:47.639Z,68.00
2018-05-26T03:11:53.968Z,80.00
2018-05-26T03:13:00.311Z,88.00
2018-05-26T03:14:06.613Z,100.00
2018-05-26T03:15:12.940Z,112.00
2018-05-26T03:16:19.281Z,128.00
2018-05-26T03:17:25.587Z,140.00
2018-05-26T03:18:32.429Z,156.00
2018-05-26T03:19:38.224Z,176.00
2018-05-26T03:20:44.549Z,192.00
2018-05-26T03:21:50.875Z,216.00
2018-05-26T03:22:57.230Z,236.00
2018-05-26T03:24:03.507Z,260.00
2018-05-26T03:25:09.831Z,280.00
2018-05-26T03:26:16.148Z,308.00
2018-05-26T03:27:23.462Z,336.00
2018-05-26T03:28:29.324Z,364.00
2018-05-26T03:29:35.095Z,396.00
2018-05-26T03:30:41.417Z,428.00
2018-05-26T03:31:47.729Z,460.00
2018-05-26T03:32:54.054Z,496.00
2018-05-26T03:34:00.390Z,536.00
2018-05-26T03:35:06.706Z,572.00
2018-05-26T03:36:13.022Z,612.00
2018-05-26T03:37:19.316Z,652.00
2018-05-26T03:38:26.145Z,692.00
2018-05-26T03:39:31.995Z,736.00
2018-05-26T03:40:38.265Z,776.00
2018-05-26T03:41:44.585Z,820.00
2018-05-26T03:42:50.912Z,868.00
2018-05-26T03:43:57.258Z,916.00
2018-05-26T03:45:03.532Z,960.00
2018-05-26T03:46:09.862Z,1012.00
2018-05-26T03:47:16.190Z,1068.00
2018-05-26T03:48:22.524Z,1116.00
2018-05-26T03:49:28.813Z,1172.00
2018-05-26T03:50:35.141Z,1228.00
2018-05-26T03:51:41.457Z,1284.00
2018-05-26T03:52:47.784Z,1336.00
2018-05-26T03:53:54.137Z,1392.00
2018-05-26T03:55:00.522Z,1448.00
2018-05-26T03:56:06.757Z,1508.00
2018-05-26T03:57:13.083Z,1564.00
2018-05-26T03:58:19.447Z,1620.00
2018-05-26T03:59:26.251Z,1680.00
2018-05-26T04:00:32.079Z,1740.00
2018-05-26T04:01:38.895Z,1808.00
2018-05-26T04:02:44.739Z,1872.00
2018-05-26T04:03:51.096Z,1932.00
2018-05-26T04:04:57.427Z,1992.00
2018-05-26T04:06:03.798Z,2060.00
2018-05-26T04:07:10.577Z,2128.00
2018-05-26T04:08:16.447Z,2200.00
2018-05-26T04:09:22.746Z,2264.00
2018-05-26T04:10:29.559Z,2332.00
2018-05-26T04:11:35.927Z,2396.00
2018-05-26T04:12:41.771Z,2464.00
2018-05-26T04:13:48.132Z,2528.00
2018-05-26T04:14:54.943Z,2592.00
2018-05-26T04:16:00.786Z,2656.00
2018-05-26T04:17:07.650Z,2720.00
2018-05-26T04:18:13.480Z,2780.00
2018-05-26T04:19:19.838Z,2840.00
2018-05-26T04:20:26.159Z,2900.00
2018-05-26T04:21:32.506Z,2952.00
2018-05-26T04:22:38.853Z,3004.00
2018-05-26T04:23:45.234Z,3068.00
2018-05-26T04:24:51.563Z,3128.00
2018-05-26T04:25:57.916Z,3180.00
2018-05-26T04:27:04.768Z,3228.00
2018-05-26T04:28:10.657Z,3272.00
2018-05-26T04:29:17.013Z,3316.00
2018-05-26T04:30:23.363Z,3360.00
2018-05-26T04:31:30.202Z,3404.00
2018-05-26T04:32:36.071Z,3444.00
2018-05-26T04:33:42.960Z,3488.00
2018-05-26T04:34:48.806Z,3520.00
2018-05-26T04:35:55.174Z,3556.00
2018-05-26T04:37:02.042Z,3588.00
2018-05-26T04:38:07.922Z,3624.00
2018-05-26T04:39:14.330Z,3664.00
2018-05-26T04:40:21.117Z,3704.00
2018-05-26T04:41:27.036Z,3736.00
2018-05-26T04:42:33.427Z,3772.00
2018-05-26T04:43:39.806Z,3804.00
2018-05-26T04:44:46.168Z,3836.00
2018-05-26T04:45:52.544Z,3864.00
2018-05-26T04:46:58.925Z,3900.00
2018-05-26T04:48:05.305Z,3932.00
2018-05-26T04:49:11.715Z,3960.00
2018-05-26T04:50:18.077Z,3992.00
2018-05-26T04:51:24.539Z,4020.00
2018-05-26T04:52:30.857Z,4048.00
2018-05-26T04:53:37.262Z,4076.00
2018-05-26T04:54:43.610Z,4104.00
2018-05-26T04:55:49.997Z,4116.00
2018-05-26T04:56:56.392Z,4136.00
2018-05-26T04:58:03.285Z,4152.00
2018-05-26T04:59:09.201Z,4164.00
2018-05-26T05:00:15.567Z,4168.00
2018-05-26T05:01:21.968Z,4164.00
2018-05-26T05:02:28.376Z,4164.00
2018-05-26T05:03:34.798Z,4168.00
2018-05-26T05:04:41.190Z,4180.00
2018-05-26T05:05:47.569Z,4200.00
2018-05-26T05:06:53.968Z,4220.00
2018-05-26T05:08:00.360Z,4240.00
2018-05-26T05:09:06.794Z,4268.00
2018-05-26T05:10:13.182Z,4300.00
2018-05-26T05:11:19.581Z,4336.00
2018-05-26T05:12:25.982Z,4364.00
2018-05-26T05:13:32.391Z,4376.00
2018-05-26T05:14:38.827Z,4400.00
2018-05-26T05:15:45.698Z,4416.00
2018-05-26T05:16:51.636Z,4440.00
2018-05-26T05:17:58.039Z,4452.00
2018-05-26T05:19:04.559Z,4472.00
2018-05-26T05:20:10.866Z,4488.00
2018-05-26T05:21:17.282Z,4508.00
2018-05-26T05:22:23.705Z,4528.00
2018-05-26T05:23:30.123Z,4544.00
2018-05-26T05:24:36.567Z,4548.00
2018-05-26T05:25:42.957Z,4536.00
2018-05-26T05:26:49.444Z,4564.00
2018-05-26T05:27:55.815Z,4576.00
2018-05-26T05:29:02.257Z,4584.00
2018-05-26T05:30:08.672Z,4596.00
2018-05-26T05:31:15.089Z,4596.00
2018-05-26T05:32:22.027Z,4612.00
2018-05-26T05:33:28.520Z,4628.00
2018-05-26T05:34:34.402Z,4640.00
2018-05-26T05:35:40.815Z,4644.00
2018-05-26T05:36:47.251Z,4656.00
2018-05-26T05:37:53.690Z,4668.00
2018-05-26T05:39:00.132Z,4696.00
2018-05-26T05:40:06.553Z,4720.00
2018-05-26T05:41:13.491Z,4748.00
2018-05-26T05:42:19.481Z,4772.00
2018-05-26T05:43:25.866Z,4796.00
2018-05-26T05:44:32.318Z,4820.00
2018-05-26T05:45:39.235Z,4824.00
2018-05-26T05:46:45.203Z,4848.00
2018-05-26T05:47:51.635Z,4852.00
2018-05-26T05:48:59.602Z,4864.00
2018-05-26T05:50:04.521Z,4900.00
2018-05-26T05:51:11.474Z,4944.00
2018-05-26T05:52:17.423Z,4964.00
2018-05-26T05:53:23.868Z,5004.00
2018-05-26T05:54:30.832Z,5032.00
2018-05-26T05:55:36.768Z,5048.00
2018-05-26T05:56:43.213Z,5060.00
2018-05-26T05:57:49.661Z,5060.00
2018-05-26T05:58:56.157Z,5084.00
2018-05-26T06:00:02.570Z,5128.00
2018-05-26T06:01:09.521Z,5136.00
2018-05-26T06:02:15.482Z,5156.00
2018-05-26T06:03:21.937Z,5232.00
2018-05-26T06:04:28.404Z,5272.00
2018-05-26T06:05:34.832Z,5296.00
2018-05-26T06:06:41.300Z,5308.00
2018-05-26T06:07:47.758Z,5344.00
2018-05-26T06:08:54.242Z,5360.00
2018-05-26T06:10:00.680Z,5352.00
2018-05-26T06:11:07.638Z,5356.00
2018-05-26T06:12:13.610Z,5380.00
2018-05-26T06:13:20.077Z,5408.00
2018-05-26T06:14:26.563Z,5412.00
2018-05-26T06:15:33.010Z,5408.00
2018-05-26T06:16:39.968Z,5392.00
2018-05-26T06:17:46.523Z,5384.00
2018-05-26T06:18:52.561Z,5376.00
2018-05-26T06:19:58.930Z,5380.00
2018-05-26T06:21:05.875Z,5368.00
2018-05-26T06:22:12.054Z,5360.00
2018-05-26T06:23:18.329Z,5376.00
2018-05-26T06:24:24.831Z,5404.00
2018-05-26T06:25:31.288Z,5436.00
2018-05-26T06:26:37.771Z,5456.00
2018-05-26T06:27:44.245Z,5476.00
2018-05-26T06:28:50.748Z,5480.00
2018-05-26T06:29:57.249Z,5492.00
2018-05-26T06:31:04.206Z,5508.00
2018-05-26T06:32:10.709Z,5532.00
2018-05-26T06:33:16.696Z,5564.00
2018-05-26T06:34:23.711Z,5592.00
2018-05-26T06:35:29.679Z,5628.00
2018-05-26T06:36:36.178Z,5648.00
2018-05-26T06:37:42.673Z,5672.00
2018-05-26T06:38:49.664Z,5688.00
2018-05-26T06:39:55.692Z,5708.00
2018-05-26T06:41:02.174Z,5724.00
2018-05-26T06:42:08.753Z,5728.00
2018-05-26T06:43:15.698Z,5744.00
2018-05-26T06:44:22.237Z,5760.00
2018-05-26T06:45:28.234Z,5776.00
2018-05-26T06:46:34.753Z,5792.00
2018-05-26T06:47:41.778Z,5800.00
2018-05-26T06:48:47.805Z,5800.00
2018-05-26T06:49:54.845Z,5808.00
2018-05-26T06:51:00.867Z,5812.00
2018-05-26T06:52:07.389Z,5840.00
2018-05-26T06:53:13.922Z,5860.00
2018-05-26T06:54:20.566Z,5876.00
2018-05-26T06:55:27.541Z,5916.00
2018-05-26T06:56:33.524Z,5944.00
2018-05-26T06:57:40.066Z,5964.00
2018-05-26T06:58:47.106Z,5996.00
2018-05-26T06:59:53.667Z,6048.00
2018-05-26T07:00:59.694Z,6120.00
2018-05-26T07:02:06.733Z,6192.00
2018-05-26T07:03:12.775Z,6232.00
2018-05-26T07:04:19.341Z,6272.00
2018-05-26T07:05:25.872Z,6312.00
2018-05-26T07:06:32.523Z,6368.00
2018-05-26T07:07:38.980Z,6532.00
2018-05-26T07:08:45.523Z,6784.00
2018-05-26T07:09:52.104Z,6844.00
2018-05-26T07:10:58.640Z,6784.00
2018-05-26T07:12:05.203Z,6752.00
2018-05-26T07:13:12.274Z,6792.00
2018-05-26T07:14:18.348Z,6812.00
2018-05-26T07:15:25.387Z,6792.00
2018-05-26T07:16:31.456Z,6804.00
2018-05-26T07:17:38.519Z,6808.00
2018-05-26T07:18:44.598Z,6796.00
2018-05-26T07:19:51.188Z,6760.00
2018-05-26T07:20:58.241Z,6704.00
2018-05-26T07:22:04.319Z,6632.00
2018-05-26T07:23:10.908Z,6572.00
2018-05-26T07:24:17.502Z,6580.00
2018-05-26T07:25:24.066Z,6624.00
2018-05-26T07:26:30.647Z,6676.00
2018-05-26T07:27:37.725Z,6672.00
2018-05-26T07:28:43.820Z,6736.00
2018-05-26T07:29:50.438Z,6824.00
2018-05-26T07:30:56.992Z,6948.00
2018-05-26T07:32:03.575Z,7176.00
2018-05-26T07:33:10.165Z,7288.00
2018-05-26T07:34:16.805Z,7212.00
2018-05-26T07:35:23.348Z,7144.00
2018-05-26T07:36:29.952Z,7204.00
2018-05-26T07:37:37.058Z,7108.00
2018-05-26T07:38:44.047Z,7256.00
2018-05-26T07:39:49.764Z,7464.00
2018-05-26T07:40:56.841Z,7440.00
2018-05-26T07:42:02.959Z,7408.00
2018-05-26T07:43:10.050Z,7360.00
2018-05-26T07:44:16.682Z,7448.00
2018-05-26T07:45:23.282Z,7448.00
2018-05-26T07:46:29.397Z,7504.00
2018-05-26T07:47:36.017Z,7532.00
2018-05-26T07:48:42.618Z,7552.00
2018-05-26T07:49:49.764Z,7660.00
2018-05-26T07:50:55.848Z,7716.00
2018-05-26T07:52:02.542Z,7668.00
2018-05-26T07:53:09.098Z,7660.00
2018-05-26T07:54:15.719Z,7636.00
2018-05-26T07:55:22.331Z,7648.00
2018-05-26T07:56:29.458Z,7684.00
2018-05-26T07:57:35.560Z,7700.00
2018-05-26T07:58:42.190Z,7676.00
2018-05-26T07:59:48.839Z,7708.00
2018-05-26T08:00:55.576Z,7700.00
2018-05-26T08:02:02.085Z,7796.00
2018-05-26T08:03:09.208Z,7824.00
2018-05-26T08:04:15.377Z,7888.00
2018-05-26T08:05:22.553Z,7864.00
2018-05-26T08:06:28.625Z,7828.00
2018-05-26T08:07:35.381Z,7784.00
2018-05-26T08:08:41.945Z,7800.00
2018-05-26T08:09:49.064Z,7848.00
2018-05-26T08:10:55.196Z,7868.00
2018-05-26T08:12:03.465Z,7928.00
2018-05-26T08:13:09.073Z,7920.00
2018-05-26T08:14:15.718Z,7916.00
2018-05-26T08:15:21.786Z,7944.00
2018-05-26T08:16:28.913Z,7956.00
2018-05-26T08:17:35.573Z,8048.00
2018-05-26T08:18:41.740Z,8168.00
2018-05-26T08:19:48.427Z,8276.00
2018-05-26T08:20:55.038Z,8260.00
2018-05-26T08:22:01.746Z,8220.00
2018-05-26T08:23:08.359Z,8168.00
2018-05-26T08:24:15.004Z,8212.00
2018-05-26T08:25:21.665Z,8248.00
2018-05-26T08:26:28.313Z,8228.00
2018-05-26T08:27:37.019Z,8240.00
2018-05-26T08:28:41.644Z,8260.00
2018-05-26T08:29:48.389Z,8184.00
2018-05-26T08:30:54.964Z,8280.00
2018-05-26T08:32:01.634Z,8380.00
2018-05-26T08:33:08.282Z,8524.00
2018-05-26T08:34:14.992Z,8644.00
2018-05-26T08:35:21.652Z,8636.00
2018-05-26T08:36:28.808Z,7596.00
2018-05-26T08:37:35.533Z,8380.00
2018-05-26T08:38:41.647Z,8344.00
2018-05-26T08:39:48.505Z,8588.00
2018-05-26T08:40:54.989Z,8932.00
2018-05-26T08:42:02.164Z,9068.00
2018-05-26T08:43:08.829Z,8924.00
2018-05-26T08:44:15.037Z,8648.00
2018-05-26T08:45:21.744Z,8676.00
2018-05-26T08:46:28.377Z,8900.00
2018-05-26T08:47:35.744Z,9028.00
2018-05-26T08:48:41.746Z,9108.00
2018-05-26T08:49:48.899Z,9032.00
2018-05-26T08:50:55.189Z,9044.00
2018-05-26T08:52:01.825Z,9032.00
2018-05-26T08:53:08.513Z,8900.00
2018-05-26T08:54:15.683Z,8832.00
2018-05-26T08:55:22.422Z,8868.00
2018-05-26T08:56:28.589Z,8872.00
2018-05-26T08:57:35.279Z,8848.00
2018-05-26T08:58:41.966Z,8684.00
2018-05-26T08:59:48.694Z,8608.00
2018-05-26T09:00:55.869Z,8628.00
2018-05-26T09:02:02.066Z,8644.00
2018-05-26T09:03:09.264Z,8736.00
2018-05-26T09:04:15.463Z,8944.00
2018-05-26T09:05:22.206Z,8824.00
2018-05-26T09:06:28.904Z,8800.00
2018-05-26T09:07:35.601Z,8960.00
2018-05-26T09:08:42.294Z,9092.00
2018-05-26T09:09:49.019Z,9168.00
2018-05-26T09:10:56.209Z,9140.00
2018-05-26T09:12:02.919Z,9140.00
2018-05-26T09:13:09.627Z,9172.00
2018-05-26T09:14:16.349Z,9200.00
2018-05-26T09:15:23.091Z,9504.00
2018-05-26T09:16:29.282Z,9408.00
2018-05-26T09:17:35.997Z,9296.00
2018-05-26T09:18:42.757Z,9372.00
2018-05-26T09:19:49.468Z,9552.00
2018-05-26T09:20:56.650Z,9488.00
2018-05-26T09:22:02.900Z,9348.00
2018-05-26T09:23:09.604Z,9192.00
2018-05-26T09:24:16.325Z,9096.00
2018-05-26T09:25:23.100Z,8972.00
2018-05-26T09:26:29.788Z,8736.00
2018-05-26T09:27:36.506Z,8840.00
2018-05-26T09:28:43.247Z,8624.00
2018-05-26T09:29:49.992Z,8684.00
2018-05-26T09:30:56.704Z,8468.00
2018-05-26T09:32:04.939Z,8428.00
2018-05-26T09:33:10.171Z,8444.00
2018-05-26T09:34:16.902Z,8448.00
2018-05-26T09:35:23.665Z,8416.00
2018-05-26T09:36:30.385Z,8396.00
2018-05-26T09:37:37.117Z,8336.00
2018-05-26T09:38:43.854Z,8372.00
2018-05-26T09:39:50.611Z,8400.00
2018-05-26T09:40:57.811Z,8440.00
2018-05-26T09:42:04.575Z,8400.00
2018-05-26T09:43:11.801Z,8392.00
2018-05-26T09:44:18.021Z,8432.00
2018-05-26T09:45:24.303Z,8504.00
2018-05-26T09:46:31.028Z,8588.00
2018-05-26T09:47:37.750Z,8572.00
2018-05-26T09:48:44.982Z,8468.00
2018-05-26T09:49:51.250Z,8304.00
2018-05-26T09:50:57.966Z,8248.00
2018-05-26T09:52:04.720Z,8276.00
2018-05-26T09:53:11.460Z,8336.00
2018-05-26T09:54:18.216Z,8444.00
2018-05-26T09:55:24.974Z,8496.00
2018-05-26T09:56:31.759Z,8540.00
2018-05-26T09:57:38.525Z,8500.00
2018-05-26T09:58:45.213Z,8384.00
2018-05-26T09:59:51.977Z,8276.00
2018-05-26T10:00:58.713Z,8200.00
2018-05-26T10:02:05.939Z,8248.00
2018-05-26T10:03:12.206Z,8352.00
2018-05-26T10:04:19.467Z,8492.00
2018-05-26T10:05:25.734Z,8520.00
2018-05-26T10:06:32.535Z,8560.00
2018-05-26T10:07:39.219Z,8648.00
2018-05-26T10:08:46.522Z,8720.00
2018-05-26T10:09:52.744Z,8772.00
2018-05-26T10:10:59.478Z,8824.00
2018-05-26T10:12:06.237Z,8928.00
2018-05-26T10:13:12.993Z,9072.00
2018-05-26T10:14:19.764Z,9176.00
2018-05-26T10:15:26.536Z,9328.00
2018-05-26T10:16:33.292Z,9412.00
2018-05-26T10:17:40.052Z,9432.00
2018-05-26T10:18:46.813Z,9424.00
2018-05-26T10:19:53.638Z,9476.00
2018-05-26T10:21:00.345Z,9592.00
2018-05-26T10:22:07.124Z,9712.00
2018-05-26T10:23:14.367Z,9780.00
2018-05-26T10:24:20.683Z,9896.00
2018-05-26T10:25:27.488Z,10036.00
2018-05-26T10:26:35.245Z,10128.00
2018-05-26T10:27:41.531Z,10700.00
2018-05-26T10:28:47.817Z,10596.00
2018-05-26T10:29:54.645Z,10600.00
2018-05-26T10:31:01.413Z,10980.00
2018-05-26T10:32:08.212Z,11176.00
2018-05-26T10:33:14.978Z,11004.00
2018-05-26T10:34:22.290Z,10892.00
2018-05-26T10:35:28.645Z,10836.00
2018-05-26T10:36:35.376Z,10856.00
2018-05-26T10:37:42.181Z,10968.00
2018-05-26T10:38:48.980Z,11080.00
2018-05-26T10:39:55.802Z,11288.00
2018-05-26T10:41:02.582Z,11624.00
2018-05-26T10:42:09.381Z,11688.00
2018-05-26T10:43:16.198Z,11792.00
2018-05-26T10:44:22.997Z,12004.00
2018-05-26T10:45:30.314Z,11844.00
2018-05-26T10:46:36.617Z,11752.00
2018-05-26T10:47:43.532Z,11900.00
2018-05-26T10:48:50.264Z,12132.00
2018-05-26T10:49:57.105Z,12392.00
2018-05-26T10:51:03.877Z,12564.00
2018-05-26T10:52:10.766Z,12492.00
2018-05-26T10:53:17.511Z,12300.00
2018-05-26T10:54:24.322Z,12008.00
2018-05-26T10:55:31.176Z,11900.00
2018-05-26T10:56:37.977Z,11980.00
2018-05-26T10:57:44.860Z,12028.00
2018-05-26T10:58:51.711Z,12204.00
2018-05-26T10:59:58.551Z,12540.00
2018-05-26T11:01:05.792Z,12792.00
2018-05-26T11:02:12.182Z,13092.00
2018-05-26T11:03:19.022Z,13900.00
2018-05-26T11:04:26.020Z,17016.00
2018-05-26T11:05:32.946Z,20384.00
2018-05-26T11:06:39.903Z,20192.00
2018-05-26T11:07:47.482Z,17792.00
2018-05-26T11:08:54.042Z,20192.00
2018-05-26T11:10:01.098Z,16008.00
2018-05-26T11:11:08.022Z,19080.00
2018-05-26T11:12:15.026Z,37760.00
2018-05-26T11:13:22.097Z,117696.00
2018-05-26T11:14:29.244Z,112864.00
2018-05-26T11:15:36.414Z,116064.00
2018-05-26T11:16:43.640Z,118752.00
2018-05-26T11:17:51.646Z,115872.00
2018-05-26T11:18:58.454Z,113408.00
2018-05-26T11:20:05.866Z,112096.00
2018-05-26T11:21:14.340Z,109120.00
2018-05-26T11:22:21.388Z,113920.00
2018-05-26T11:23:28.564Z,114848.00
2018-05-26T11:24:36.124Z,111648.00
2018-05-26T11:25:43.777Z,112704.00
2018-05-26T11:26:51.356Z,109088.00
2018-05-26T11:27:59.026Z,108448.00
2018-05-26T11:29:06.725Z,105696.00
2018-05-26T11:30:14.916Z,109856.00
2018-05-26T11:31:22.169Z,113824.00
2018-05-26T11:32:29.956Z,107808.00
2018-05-26T11:33:37.708Z,108192.00
2018-05-26T11:34:45.996Z,107040.00
2018-05-26T11:35:53.310Z,55648.00
2018-05-26T11:37:01.090Z,105632.00
2018-05-26T11:38:08.887Z,49216.00
2018-05-26T11:39:16.643Z,86912.00
2018-05-26T11:40:24.428Z,112448.00
2018-05-26T11:41:32.203Z,111584.00
2018-05-26T11:42:40.013Z,114624.00
2018-05-26T11:43:47.859Z,111392.00
2018-05-26T11:44:56.330Z,110880.00
2018-05-26T11:46:03.617Z,110912.00
2018-05-26T11:47:11.508Z,111232.00
2018-05-26T11:48:20.358Z,108160.00
2018-05-26T11:49:27.331Z,108736.00
2018-05-26T11:50:35.778Z,109088.00
2018-05-26T11:51:43.222Z,110944.00
2018-05-26T11:52:51.183Z,109856.00
2018-05-26T11:53:59.148Z,108640.00
2018-05-26T11:55:07.140Z,107392.00
2018-05-26T11:56:15.170Z,109920.00
2018-05-26T11:57:23.166Z,108768.00
2018-05-26T11:58:31.655Z,111392.00
2018-05-26T11:59:39.204Z,110816.00
2018-05-26T12:00:47.272Z,107840.00
2018-05-26T12:01:55.329Z,110528.00
2018-05-26T12:03:03.837Z,112288.00
2018-05-26T12:04:11.408Z,107808.00
2018-05-26T12:05:19.514Z,104416.00
2018-05-26T12:06:28.573Z,106080.00
2018-05-26T12:07:36.162Z,110560.00
2018-05-26T12:08:43.793Z,112192.00
2018-05-26T12:09:51.899Z,111424.00
2018-05-26T12:11:00.071Z,109344.00
2018-05-26T12:12:08.159Z,106656.00
2018-05-26T12:13:16.815Z,106368.00
2018-05-26T12:14:24.537Z,105184.00
2018-05-26T12:15:32.608Z,107584.00
2018-05-26T12:16:40.744Z,112256.00
2018-05-26T12:17:49.412Z,108928.00
2018-05-26T12:18:57.098Z,107968.00
2018-05-26T12:20:05.562Z,104640.00
2018-05-26T12:21:13.422Z,108768.00
2018-05-26T12:22:22.039Z,108032.00
2018-05-26T12:23:29.700Z,111776.00
2018-05-26T12:24:37.845Z,111936.00
2018-05-26T12:25:46.564Z,114336.00
2018-05-26T12:26:54.140Z,111424.00
2018-05-26T12:28:02.284Z,110432.00
2018-05-26T12:29:10.526Z,111744.00
2018-05-26T12:30:18.607Z,110912.00
2018-05-26T12:31:27.278Z,107232.00
2018-05-26T12:32:34.916Z,104320.00
2018-05-26T12:33:43.071Z,105920.00
2018-05-26T12:34:51.237Z,109984.00
2018-05-26T12:35:59.411Z,111424.00
2018-05-26T12:37:07.557Z,103616.00
2018-05-26T12:38:15.694Z,108128.00
2018-05-26T12:39:23.813Z,107232.00
2018-05-26T12:40:31.975Z,105216.00
2018-05-26T12:41:40.601Z,96896.00
2018-05-26T12:42:48.246Z,92800.00
2018-05-26T12:43:56.894Z,97952.00
2018-05-26T12:45:04.521Z,89440.00
2018-05-26T12:46:12.676Z,89440.00
2018-05-26T12:47:20.769Z,85984.00
2018-05-26T12:48:28.876Z,88352.00
2018-05-26T12:49:36.979Z,92224.00
2018-05-26T12:50:46.623Z,90528.00
2018-05-26T12:51:53.212Z,94880.00
2018-05-26T12:53:01.327Z,95200.00
2018-05-26T12:54:09.445Z,100288.00
2018-05-26T12:55:17.563Z,99904.00
2018-05-26T12:56:25.695Z,101728.00
2018-05-26T12:57:34.302Z,96640.00
2018-05-26T12:58:42.525Z,103008.00
2018-05-26T12:59:50.121Z,104896.00
2018-05-26T13:00:58.252Z,108704.00
2018-05-26T13:02:06.394Z,98432.00
2018-05-26T13:03:14.545Z,105600.00
2018-05-26T13:04:22.702Z,102528.00
2018-05-26T13:05:31.386Z,101152.00
2018-05-26T13:06:39.002Z,106432.00
2018-05-26T13:07:47.161Z,97024.00
2018-05-26T13:08:55.783Z,92416.00
2018-05-26T13:10:03.395Z,87872.00
2018-05-26T13:11:11.514Z,87136.00
2018-05-26T13:12:19.560Z,98368.00
2018-05-26T13:13:27.628Z,101280.00
2018-05-26T13:14:36.188Z,106080.00
2018-05-26T13:15:43.814Z,94688.00
2018-05-26T13:16:52.364Z,105408.00
2018-05-26T13:17:59.900Z,113856.00
2018-05-26T13:19:08.009Z,113088.00
2018-05-26T13:20:16.075Z,112320.00
2018-05-26T13:21:24.239Z,112928.00
2018-05-26T13:22:32.848Z,114144.00
2018-05-26T13:23:40.435Z,114944.00
2018-05-26T13:24:49.030Z,118880.00
2018-05-26T13:25:56.720Z,119808.00
2018-05-26T13:27:04.888Z,119552.00
2018-05-26T13:28:12.997Z,118176.00
2018-05-26T13:29:21.173Z,114432.00
2018-05-26T13:30:29.384Z,117184.00
2018-05-26T13:31:37.627Z,117280.00
2018-05-26T13:32:45.819Z,118880.00
2018-05-26T13:33:54.021Z,112992.00
2018-05-26T13:35:02.282Z,109024.00
2018-05-26T13:36:10.509Z,115008.00